Time;durP1;ratioP1;P1;durP2;ratioP2;P2;SDS_P1;SDS_P2;PMS_P1;PMS_P2;Temp;Humidity;BMP_temperature;BMP_pressure;BME280_temperature;BME280_humidity;BME280_pressure;Samples;Min_cycle;Max_cycle;Signal;HPM_P1;HPM_P2
2022/01/25 00:28:48;;;;;;;31.20;13.40;;;;;;;3.54;90.46;102681.34;107927;1281;71276;-74
2022/01/25 00:31:18;;;;;;;25.50;11.70;;;;;;;3.55;90.20;102681.15;107867;1279;72026;-73
2022/01/25 00:33:48;;;;;;;30.80;13.20;;;;;;;3.57;90.05;102683.32;107875;1279;61562;-74
2022/01/25 00:36:18;;;;;;;29.30;12.20;;;;;;;3.59;90.33;102682.52;107882;1280;60695;-73
2022/01/25 00:38:45;;;;;;;28.90;12.40;;;;;;;3.60;90.20;102679.83;107857;1279;75075;-75
2022/01/25 00:41:12;;;;;;;27.70;12.30;;;;;;;3.60;90.00;102677.88;107877;1279;73299;-73
2022/01/25 00:43:39;;;;;;;20.50;9.80;;;;;;;3.60;90.10;102678.23;107863;1279;73790;-74
2022/01/25 00:46:09;;;;;;;25.70;12.20;;;;;;;3.60;89.95;102676.84;107884;1281;62128;-72
2022/01/25 00:54:00;;;;;;;26.00;12.30;;;;;;;3.58;90.00;102670.32;107756;1279;71693;-72
2022/01/25 00:56:30;;;;;;;23.60;12.20;;;;;;;3.57;89.93;102670.54;107757;1281;72992;-72
2022/01/25 00:58:59;;;;;;;25.60;13.20;;;;;;;3.56;89.64;102674.45;107867;1279;61457;-72
2022/01/25 01:01:27;;;;;;;25.90;12.90;;;;;;;3.54;89.84;102672.95;107760;1280;60437;-74
2022/01/25 01:03:54;;;;;;;30.60;13.80;;;;;;;3.56;89.67;102663.96;107761;1280;75971;-73
2022/01/25 01:06:23;;;;;;;27.30;13.10;;;;;;;3.56;89.34;102668.16;107926;1281;71418;-73
2022/01/25 01:08:50;;;;;;;26.30;11.70;;;;;;;3.56;88.73;102663.80;107848;1280;72973;-74
2022/01/25 01:11:26;;;;;;;25.30;13.80;;;;;;;3.55;88.39;102664.70;107878;1281;61532;-76
2022/01/25 01:14:00;;;;;;;24.90;12.70;;;;;;;3.55;88.87;102655.60;107765;1281;61396;-74
2022/01/25 01:43:36;;;;;;;28.10;12.80;;;;;;;3.52;89.37;102634.92;107918;1281;74068;-74
2022/01/25 01:51:17;;;;;;;27.50;11.80;;;;;;;3.52;89.51;102630.77;107580;1279;62453;-74
2022/01/25 01:53:45;;;;;;;20.50;11.30;;;;;;;3.51;89.18;102628.55;107913;1280;61840;-73
2022/01/25 01:56:11;;;;;;;23.00;11.90;;;;;;;3.49;89.18;102629.00;107913;1280;76118;-71
2022/01/25 01:58:39;;;;;;;23.90;12.80;;;;;;;3.47;89.38;102627.33;107884;1280;72627;-72
2022/01/25 02:01:10;;;;;;;23.40;11.80;;;;;;;3.47;89.48;102630.14;107862;1280;72737;-72
2022/01/25 02:03:36;;;;;;;26.10;11.80;;;;;;;3.48;89.59;102629.75;107903;1281;61319;-73
2022/01/25 02:06:03;;;;;;;23.10;11.60;;;;;;;3.48;89.68;102631.31;107879;1280;60657;-72
2022/01/25 02:08:30;;;;;;;29.60;13.50;;;;;;;3.50;89.83;102628.95;107877;1280;75098;-73
2022/01/25 02:10:56;;;;;;;21.60;10.70;;;;;;;3.50;89.88;102629.45;107850;1280;70872;-73
2022/01/25 02:13:23;;;;;;;23.70;11.70;;;;;;;3.50;89.16;102625.48;107903;1280;74001;-72
2022/01/25 02:15:50;;;;;;;23.10;11.90;;;;;;;3.46;87.72;102623.70;107897;1279;61428;-72
2022/01/25 02:23:48;;;;;;;28.40;13.70;;;;;;;3.43;86.43;102619.83;107902;1281;71554;-73
2022/01/25 02:26:15;;;;;;;23.60;11.70;;;;;;;3.43;87.06;102621.60;107848;1281;72517;-72
2022/01/25 02:28:45;;;;;;;22.20;11.20;;;;;;;3.42;87.21;102620.43;107900;1280;60362;-72
2022/01/25 02:31:15;;;;;;;28.00;12.70;;;;;;;3.40;87.46;102617.37;107570;1281;59300;-72
2022/01/25 02:33:44;;;;;;;24.10;11.70;;;;;;;3.41;88.06;102616.98;107729;1280;74675;-72
2022/01/25 02:36:41;;;;;;;30.10;13.20;;;;;;;3.40;87.95;102611.94;107875;1281;71489;-74
2022/01/25 02:39:08;;;;;;;21.70;11.60;;;;;;;3.42;88.68;102608.16;107701;1281;73756;-73
2022/01/25 02:41:35;;;;;;;26.00;12.00;;;;;;;3.44;88.45;102609.65;107698;1281;61466;-73
2022/01/25 02:44:05;;;;;;;29.40;12.70;;;;;;;3.45;88.15;102611.90;107455;1281;61978;-72
2022/01/25 02:49:04;;;;;;;27.90;12.70;;;;;;;3.46;88.48;102615.82;107841;1280;71466;-73
2022/01/25 02:51:38;;;;;;;27.50;14.10;;;;;;;3.48;88.68;102618.40;107850;1279;74072;-72
2022/01/25 02:54:08;;;;;;;27.20;12.60;;;;;;;3.50;88.36;102614.77;107885;1278;61534;-73
2022/01/25 02:56:36;;;;;;;25.20;11.70;;;;;;;3.50;88.46;102608.27;107862;1280;59325;-73
2022/01/25 02:59:05;;;;;;;27.10;11.50;;;;;;;3.53;88.45;102609.36;107869;1281;74918;-73
2022/01/25 03:01:33;;;;;;;26.80;13.00;;;;;;;3.54;88.12;102604.58;107848;1279;71205;-73
2022/01/25 03:04:01;;;;;;;26.40;12.90;;;;;;;3.54;88.13;102603.35;107723;1280;72684;-72
2022/01/25 03:06:27;;;;;;;29.00;13.20;;;;;;;3.53;87.73;102600.25;107858;1281;63299;-72
2022/01/25 03:08:54;;;;;;;25.60;12.40;;;;;;;3.54;88.07;102603.67;107864;1280;61750;-72
2022/01/25 03:11:23;;;;;;;27.10;12.60;;;;;;;3.53;87.39;102597.26;107757;1280;74479;-73
2022/01/25 03:13:52;;;;;;;25.40;12.30;;;;;;;3.52;87.13;102602.73;107630;1281;72289;-72
2022/01/25 03:16:46;;;;;;;21.10;11.10;;;;;;;3.51;87.53;102605.27;107725;1280;73732;-73
2022/01/25 03:22:04;;;;;;;24.90;11.50;;;;;;;3.49;87.00;102602.73;107880;1280;61340;-73
2022/01/25 03:24:32;;;;;;;26.10;12.00;;;;;;;3.48;87.39;102599.80;107808;1280;74996;-72
2022/01/25 03:26:59;;;;;;;24.40;12.20;;;;;;;3.47;87.42;102600.05;107871;1281;72499;-72
2022/01/25 03:29:25;;;;;;;27.70;12.50;;;;;;;3.47;87.33;102603.20;107872;1280;72923;-73
2022/01/25 03:31:52;;;;;;;29.10;13.40;;;;;;;3.46;86.85;102601.83;107883;1280;63005;-73
2022/01/25 03:34:19;;;;;;;30.20;13.30;;;;;;;3.46;86.53;102599.05;107844;1279;60681;-72
2022/01/25 03:36:45;;;;;;;31.30;13.00;;;;;;;3.45;86.60;102594.38;107892;1279;74930;-72
2022/01/25 03:39:13;;;;;;;23.00;10.70;;;;;;;3.44;86.41;102592.66;107868;1279;72883;-73
2022/01/25 03:41:42;;;;;;;23.90;11.70;;;;;;;3.43;86.39;102593.76;107841;1279;73984;-72
2022/01/25 03:44:09;;;;;;;21.90;10.00;;;;;;;3.43;86.68;102594.81;107872;1280;61425;-73
2022/01/25 03:51:53;;;;;;;30.10;13.30;;;;;;;3.38;85.67;102591.59;107888;1279;71500;-73
2022/01/25 03:54:20;;;;;;;25.20;13.10;;;;;;;3.38;85.55;102591.27;107875;1280;74126;-73
2022/01/25 03:56:47;;;;;;;25.70;11.90;;;;;;;3.37;85.45;102590.77;107843;1280;61430;-72
2022/01/25 03:59:14;;;;;;;26.20;12.10;;;;;;;3.36;85.37;102591.35;107893;1281;61606;-72
2022/01/25 04:01:40;;;;;;;24.00;10.60;;;;;;;3.35;85.43;102589.36;107766;1281;74966;-73
2022/01/25 04:04:14;;;;;;;27.10;12.70;;;;;;;3.33;85.48;102591.88;107835;1280;71418;-72
2022/01/25 04:06:47;;;;;;;31.60;14.40;;;;;;;3.31;85.34;102593.76;107872;1279;72542;-72
2022/01/25 04:09:14;;;;;;;28.20;12.10;;;;;;;3.30;85.63;102590.15;107877;1280;61987;-72
2022/01/25 04:11:41;;;;;;;32.40;15.20;;;;;;;3.29;85.56;102586.69;107875;1279;59666;-72
2022/01/25 04:14:08;;;;;;;29.10;13.30;;;;;;;3.28;85.76;102585.69;107772;1280;74828;-72
2022/01/25 04:16:48;;;;;;;31.70;13.20;;;;;;;3.27;86.17;102586.23;107754;1281;71885;-72
2022/01/25 04:19:32;;;;;;;26.00;12.10;;;;;;;3.27;86.76;102582.04;107858;1278;72922;-72
2022/01/25 04:24:44;;;;;;;28.40;13.40;;;;;;;3.26;86.52;102581.92;107827;1280;60810;-73
2022/01/25 04:27:34;;;;;;;17.80;8.30;;;;;;;3.25;87.00;102581.27;107828;1280;73862;-72
2022/01/25 04:30:01;;;;;;;32.70;14.50;;;;;;;3.23;87.39;102578.73;107748;1280;71578;-72
2022/01/25 04:32:34;;;;;;;34.90;15.60;;;;;;;3.22;87.55;102579.11;107873;1280;73057;-72
2022/01/25 04:49:13;;;;;;;29.40;12.10;;;;;;;3.15;89.09;102568.65;107881;1279;61509;-73
2022/01/25 04:54:35;;;;;;;38.00;15.30;;;;;;;3.11;89.43;102565.38;107698;1281;74957;-71
2022/01/25 04:59:46;;;;;;;31.40;13.10;;;;;;;3.11;89.64;102566.98;107868;1279;74266;-72
2022/01/25 05:02:37;;;;;;;29.60;13.20;;;;;;;3.10;89.79;102567.35;107904;1279;62169;-72
2022/01/25 05:05:18;;;;;;;37.20;15.60;;;;;;;3.09;89.79;102566.21;107946;1279;61926;-72
2022/01/25 05:10:15;;;;;;;35.90;15.50;;;;;;;3.03;89.29;102572.25;107962;1279;71636;-72
2022/01/25 05:23:28;;;;;;;42.90;16.10;;;;;;;3.00;89.31;102574.49;107906;1279;70392;-72
2022/01/25 05:25:55;;;;;;;37.10;16.00;;;;;;;3.01;89.22;102583.92;107809;1280;73014;-73
2022/01/25 05:28:22;;;;;;;37.80;15.80;;;;;;;3.00;88.73;102584.33;107929;1279;61657;-73
2022/01/25 05:30:48;;;;;;;35.50;16.70;;;;;;;3.01;88.74;102587.59;107951;1279;61670;-73
2022/01/25 05:33:16;;;;;;;38.70;15.40;;;;;;;3.01;88.29;102585.65;107909;1278;76124;-71
2022/01/25 05:35:42;;;;;;;36.20;15.30;;;;;;;3.01;88.40;102587.56;107887;1279;71213;-72
2022/01/25 05:38:09;;;;;;;38.50;17.40;;;;;;;3.01;88.29;102587.58;107945;1278;74215;-72
2022/01/25 05:40:56;;;;;;;37.30;16.50;;;;;;;3.01;88.58;102591.79;107899;1279;61734;-72
2022/01/25 05:46:15;;;;;;;29.00;12.20;;;;;;;2.99;88.42;102588.60;107910;1279;75740;-73
2022/01/25 05:48:43;;;;;;;42.70;15.90;;;;;;;2.98;88.39;102590.00;107820;1281;71448;-73
2022/01/25 05:51:10;;;;;;;32.90;13.60;;;;;;;2.98;87.89;102593.70;107790;1281;74874;-73
2022/01/25 05:53:37;;;;;;;34.70;14.20;;;;;;;2.98;88.23;102590.34;107869;1279;61261;-73
2022/01/25 05:56:06;;;;;;;36.10;15.80;;;;;;;2.99;88.10;102599.05;107833;1280;61779;-72
2022/01/25 05:58:32;;;;;;;35.00;16.00;;;;;;;2.99;88.26;102595.75;107929;1279;59572;-72
2022/01/25 06:00:59;;;;;;;38.70;17.70;;;;;;;2.98;88.04;102599.81;107915;1279;59242;-72
2022/01/25 06:03:29;;;;;;;24.60;12.10;;;;;;;2.96;87.75;102594.52;107912;1279;73301;-73
2022/01/25 06:05:56;;;;;;;34.30;14.50;;;;;;;2.93;88.00;102597.42;107887;1279;62144;-73
2022/01/25 06:08:23;;;;;;;29.30;12.40;;;;;;;2.93;87.77;102603.90;107910;1279;60627;-72
2022/01/25 06:10:49;;;;;;;33.30;13.90;;;;;;;2.93;87.84;102602.02;107772;1281;74938;-73
2022/01/25 06:13:16;;;;;;;34.50;14.90;;;;;;;2.92;87.27;102603.47;107887;1279;59117;-73
2022/01/25 06:15:43;;;;;;;27.80;12.90;;;;;;;2.90;87.21;102606.35;107879;1280;73177;-72
2022/01/25 06:18:09;;;;;;;38.10;15.70;;;;;;;2.88;87.31;102608.52;107906;1280;60705;-73
2022/01/25 06:20:36;;;;;;;31.70;13.60;;;;;;;2.85;86.54;102606.91;107901;1280;59047;-73
2022/01/25 06:23:02;;;;;;;35.20;14.30;;;;;;;2.84;85.93;102601.75;107842;1280;75729;-73
2022/01/25 06:25:29;;;;;;;35.60;14.00;;;;;;;2.83;86.01;102600.21;107904;1279;70449;-73
2022/01/25 06:27:56;;;;;;;35.80;15.50;;;;;;;2.84;86.23;102600.31;107895;1280;59492;-73
2022/01/25 06:30:22;;;;;;;35.60;14.50;;;;;;;2.84;86.35;102605.36;107925;1280;59065;-73
2022/01/25 06:32:49;;;;;;;35.00;15.10;;;;;;;2.83;86.30;102607.18;107947;1279;60929;-72
2022/01/25 06:35:16;;;;;;;32.50;14.00;;;;;;;2.83;86.71;102605.77;107904;1279;75922;-73
2022/01/25 06:37:44;;;;;;;31.70;13.60;;;;;;;2.84;86.47;102602.58;107736;1281;71334;-73
2022/01/25 06:40:12;;;;;;;25.50;10.90;;;;;;;2.83;86.46;102600.88;107946;1280;72984;-72
2022/01/25 06:42:39;;;;;;;31.90;14.30;;;;;;;2.80;86.33;102599.98;107929;1281;61073;-73
2022/01/25 06:45:15;;;;;;;34.10;13.90;;;;;;;2.79;86.76;102603.55;107921;1280;61811;-73
2022/01/25 06:47:43;;;;;;;37.20;14.70;;;;;;;2.79;86.67;102601.77;107943;1279;75675;-73
2022/01/25 06:50:11;;;;;;;32.10;13.40;;;;;;;2.79;86.63;102603.35;107924;1281;71571;-72
2022/01/25 06:52:41;;;;;;;31.20;14.00;;;;;;;2.80;86.62;102607.50;107909;1280;73825;-73
2022/01/25 06:55:19;;;;;;;28.40;12.50;;;;;;;2.80;86.36;102605.04;107923;1279;59884;-73
2022/01/25 06:57:46;;;;;;;33.70;14.30;;;;;;;2.80;86.30;102608.04;107946;1280;59559;-73
2022/01/25 07:00:22;;;;;;;32.00;12.40;;;;;;;2.79;86.35;102611.96;107790;1279;76012;-76
2022/01/25 07:02:49;;;;;;;37.10;14.90;;;;;;;2.77;86.59;102608.75;107873;1279;71176;-75
2022/01/25 07:05:16;;;;;;;32.90;14.20;;;;;;;2.78;86.89;102608.52;107887;1279;74019;-76
2022/01/25 07:07:45;;;;;;;36.10;14.60;;;;;;;2.80;86.79;102608.39;107961;1280;59892;-76
2022/01/25 07:10:11;;;;;;;34.60;14.80;;;;;;;2.85;87.07;102612.86;107935;1280;60881;-76
2022/01/25 07:12:38;;;;;;;37.10;16.20;;;;;;;2.92;87.17;102611.48;107913;1279;74639;-76
2022/01/25 07:15:05;;;;;;;43.40;17.40;;;;;;;2.98;86.95;102612.93;107918;1280;70872;-75
2022/01/25 07:17:33;;;;;;;35.60;16.00;;;;;;;3.02;87.01;102610.45;107996;1279;73747;-76
2022/01/25 07:20:00;;;;;;;41.90;17.10;;;;;;;3.05;86.68;102609.39;107929;1281;59791;-76
2022/01/25 07:22:26;;;;;;;29.70;12.30;;;;;;;3.07;86.40;102608.39;107886;1280;61387;-76
2022/01/25 07:24:53;;;;;;;36.80;16.70;;;;;;;3.06;86.26;102609.89;107835;1281;75905;-76
2022/01/25 07:27:20;;;;;;;33.80;15.00;;;;;;;3.06;86.64;102606.05;107469;1280;674766;-76
2022/01/25 07:29:47;;;;;;;35.00;14.50;;;;;;;3.06;86.81;102606.73;107919;1279;72353;-75
2022/01/25 07:32:14;;;;;;;31.70;14.80;;;;;;;3.05;86.68;102611.48;107944;1281;60121;-76
2022/01/25 07:34:41;;;;;;;37.50;15.50;;;;;;;3.09;86.69;102610.10;107946;1279;59656;-76
2022/01/25 07:37:24;;;;;;;37.30;15.80;;;;;;;3.11;86.37;102611.56;107780;1281;75320;-76
2022/01/25 07:39:57;;;;;;;34.30;15.20;;;;;;;3.12;86.48;102612.88;107950;1280;71369;-76
2022/01/25 07:42:24;;;;;;;33.00;14.90;;;;;;;3.15;86.46;102612.20;107965;1281;73200;-76
2022/01/25 07:45:01;;;;;;;35.50;15.40;;;;;;;3.17;86.66;102611.95;107968;1279;61744;-76
2022/01/25 07:47:28;;;;;;;33.70;13.90;;;;;;;3.16;86.14;102610.40;107953;1279;60917;-76
2022/01/25 07:49:57;;;;;;;36.60;14.70;;;;;;;3.16;86.34;102612.15;107969;1280;75682;-76
2022/01/25 07:52:28;;;;;;;34.70;14.40;;;;;;;3.16;86.82;102616.36;107902;1281;71541;-76
2022/01/25 07:54:55;;;;;;;32.10;14.50;;;;;;;3.16;86.66;102619.70;108004;1280;59257;-76
2022/01/25 07:57:22;;;;;;;35.30;15.40;;;;;;;3.16;86.83;102622.68;107964;1279;60481;-76
2022/01/25 07:59:48;;;;;;;31.60;12.20;;;;;;;3.16;86.58;102623.00;108002;1280;60104;-76
2022/01/25 08:02:17;;;;;;;36.90;15.30;;;;;;;3.17;86.51;102625.39;107973;1279;75269;-76
2022/01/25 08:04:45;;;;;;;37.20;14.90;;;;;;;3.17;86.49;102623.65;107971;1280;71697;-78
2022/01/25 08:07:17;;;;;;;42.00;16.00;;;;;;;3.17;86.61;102620.30;107914;1281;73020;-76
2022/01/25 08:09:52;;;;;;;37.20;15.20;;;;;;;3.17;86.60;102615.61;107844;1281;62251;-76
2022/01/25 08:12:22;;;;;;;36.50;15.60;;;;;;;3.16;86.32;102619.88;107916;1279;62498;-76
2022/01/25 08:14:57;;;;;;;35.50;15.20;;;;;;;3.16;86.54;102614.60;107977;1281;76008;-76
2022/01/25 08:17:25;;;;;;;37.00;16.10;;;;;;;3.16;86.86;102613.74;107922;1280;70512;-76
2022/01/25 08:19:57;;;;;;;37.60;15.10;;;;;;;3.15;86.83;102615.88;107919;1281;74951;-76
2022/01/25 08:22:27;;;;;;;38.00;14.30;;;;;;;3.15;86.87;102616.23;107933;1280;61404;-76
2022/01/25 08:24:54;;;;;;;39.60;15.90;;;;;;;3.16;86.84;102618.77;107933;1280;60766;-76
2022/01/25 08:27:23;;;;;;;36.30;14.20;;;;;;;3.18;87.11;102619.04;107929;1280;75117;-76
2022/01/25 08:29:54;;;;;;;33.20;13.30;;;;;;;3.19;87.02;102618.80;107936;1279;71891;-76
2022/01/25 08:32:22;;;;;;;28.00;13.30;;;;;;;3.18;87.09;102617.45;107810;1281;72967;-76
2022/01/25 08:34:57;;;;;;;35.70;14.00;;;;;;;3.17;86.97;102614.89;107918;1280;59536;-76
2022/01/25 08:37:27;;;;;;;35.50;14.60;;;;;;;3.17;86.99;102620.84;107949;1279;60507;-76
2022/01/25 08:39:57;;;;;;;35.00;14.40;;;;;;;3.18;87.12;102619.77;107863;1281;74826;-77
2022/01/25 08:42:25;;;;;;;32.80;14.10;;;;;;;3.17;87.15;102622.23;107948;1279;72795;-77
2022/01/25 08:45:09;;;;;;;36.50;14.90;;;;;;;3.19;87.04;102625.27;107915;1281;73055;-77
2022/01/25 08:47:37;;;;;;;41.70;16.40;;;;;;;3.21;86.98;102633.77;107844;1281;59153;-77
2022/01/25 08:50:11;;;;;;;31.60;15.20;;;;;;;3.22;87.13;102634.92;107930;1280;60577;-76
2022/01/25 08:52:41;;;;;;;35.20;14.80;;;;;;;3.23;86.93;102640.30;107877;1281;73666;-76
2022/01/25 08:55:28;;;;;;;35.30;16.00;;;;;;;3.24;87.22;102639.20;107777;1279;71370;-76
2022/01/25 08:57:58;;;;;;;33.30;15.10;;;;;;;3.27;87.32;102633.63;107877;1279;71663;-76
2022/01/25 09:00:25;;;;;;;35.00;14.60;;;;;;;3.28;87.24;102636.90;107681;1281;60978;-77
2022/01/25 09:02:51;;;;;;;37.40;15.00;;;;;;;3.28;87.15;102636.56;107859;1281;61887;-77
2022/01/25 09:05:19;;;;;;;39.20;14.40;;;;;;;3.27;86.94;102636.94;107823;1281;75057;-77
2022/01/25 09:07:46;;;;;;;38.90;15.30;;;;;;;3.26;86.82;102635.44;107905;1281;72390;-76
2022/01/25 09:10:12;;;;;;;36.40;16.20;;;;;;;3.25;86.99;102633.34;107901;1281;73977;-76
2022/01/25 09:12:39;;;;;;;39.30;15.50;;;;;;;3.24;87.00;102629.23;107937;1280;60087;-76
2022/01/25 09:15:06;;;;;;;36.90;16.20;;;;;;;3.22;87.06;102634.20;107907;1280;61654;-77
2022/01/25 09:17:32;;;;;;;36.90;15.30;;;;;;;3.22;87.36;102634.91;107877;1280;76121;-76
2022/01/25 09:20:01;;;;;;;36.70;15.20;;;;;;;3.21;87.64;102637.95;107868;1280;71471;-76
2022/01/25 09:22:28;;;;;;;34.70;14.60;;;;;;;3.21;87.83;102639.36;107857;1279;71496;-76
2022/01/25 09:25:15;;;;;;;35.20;14.50;;;;;;;3.23;87.53;102646.60;107773;1281;64179;-76
2022/01/25 09:27:46;;;;;;;43.40;15.70;;;;;;;3.24;87.68;102649.31;107854;1281;61613;-77
2022/01/25 09:30:13;;;;;;;38.50;16.10;;;;;;;3.25;87.74;102640.20;107928;1280;74918;-77
2022/01/25 09:32:39;;;;;;;33.50;14.70;;;;;;;3.25;87.73;102641.06;107732;1280;71464;-77
2022/01/25 09:35:06;;;;;;;32.90;13.40;;;;;;;3.24;87.90;102640.05;107926;1281;73057;-76
2022/01/25 09:37:33;;;;;;;38.80;15.20;;;;;;;3.24;88.28;102641.80;107816;1281;59756;-76
2022/01/25 09:40:01;;;;;;;31.60;13.40;;;;;;;3.23;87.72;102641.70;107949;1280;59098;-77
2022/01/25 09:42:29;;;;;;;37.90;14.30;;;;;;;3.22;87.70;102644.88;107897;1279;74631;-77
2022/01/25 09:44:57;;;;;;;35.70;14.70;;;;;;;3.21;87.96;102643.89;107911;1280;71890;-76
2022/01/25 09:47:24;;;;;;;40.40;15.60;;;;;;;3.22;87.92;102647.17;107711;1281;73764;-76
2022/01/25 09:49:51;;;;;;;33.90;14.20;;;;;;;3.24;88.20;102649.34;107807;1281;61010;-76
2022/01/25 09:52:19;;;;;;;32.70;13.00;;;;;;;3.25;88.35;102651.39;107829;1281;60643;-76
2022/01/25 09:54:53;;;;;;;29.30;12.50;;;;;;;3.24;88.27;102648.64;107944;1280;74743;-77
2022/01/25 09:57:20;;;;;;;36.20;15.90;;;;;;;3.23;88.48;102651.66;107726;1281;71560;-77
2022/01/25 09:59:49;;;;;;;31.80;15.00;;;;;;;3.22;88.73;102646.45;107923;1280;73424;-75
2022/01/25 10:02:36;;;;;;;33.90;13.60;;;;;;;3.24;88.58;102650.53;107881;1281;61107;-76
2022/01/25 10:05:25;;;;;;;39.00;15.00;;;;;;;3.26;88.56;102654.29;107945;1281;60620;-76
2022/01/25 10:08:07;;;;;;;40.50;15.90;;;;;;;3.28;88.59;102660.34;107859;1281;74956;-77
2022/01/25 10:10:37;;;;;;;48.20;16.00;;;;;;;3.29;88.05;102658.04;107961;1281;71414;-76
2022/01/25 10:13:10;;;;;;;37.00;16.20;;;;;;;3.27;88.21;102661.23;107950;1280;74009;-77
2022/01/25 10:15:37;;;;;;;32.70;14.20;;;;;;;3.25;87.67;102666.23;107949;1280;59829;-78
2022/01/25 10:18:13;;;;;;;38.80;15.90;;;;;;;3.23;87.84;102661.98;107959;1281;61669;-76
2022/01/25 10:20:49;;;;;;;39.10;15.60;;;;;;;3.21;88.21;102662.24;107954;1280;76562;-76
2022/01/25 10:23:24;;;;;;;36.30;14.30;;;;;;;3.22;88.32;102662.52;107948;1281;72896;-76
2022/01/25 10:25:51;;;;;;;39.60;14.60;;;;;;;3.23;88.40;102660.90;107930;1280;74175;-76
2022/01/25 10:28:24;;;;;;;36.70;16.70;;;;;;;3.24;87.98;102657.91;107924;1280;61364;-76
2022/01/25 10:30:53;;;;;;;36.20;15.90;;;;;;;3.24;88.30;102651.77;107921;1280;60679;-76
2022/01/25 10:33:27;;;;;;;31.90;12.90;;;;;;;3.25;88.76;102646.81;107812;1280;76162;-76
2022/01/25 10:35:57;;;;;;;33.20;13.80;;;;;;;3.26;88.73;102649.41;107895;1281;72568;-78
2022/01/25 10:38:33;;;;;;;41.00;16.80;;;;;;;3.25;88.62;102645.98;107944;1280;71959;-76
2022/01/25 10:41:08;;;;;;;39.90;15.50;;;;;;;3.23;88.95;102645.90;107769;1281;61483;-76
2022/01/25 10:43:37;;;;;;;40.90;16.30;;;;;;;3.22;88.87;102642.42;107934;1280;60331;-77
2022/01/25 10:46:06;;;;;;;37.00;15.10;;;;;;;3.21;89.22;102640.77;107939;1280;77496;-78
2022/01/25 10:48:34;;;;;;;33.80;13.70;;;;;;;3.18;89.25;102645.46;107930;1281;70415;-77
2022/01/25 10:51:07;;;;;;;34.90;15.20;;;;;;;3.15;89.01;102645.80;107802;1281;76007;-76
2022/01/25 10:53:35;;;;;;;40.60;16.10;;;;;;;3.14;89.39;102648.82;107955;1281;59165;-77
2022/01/25 10:56:04;;;;;;;30.30;12.00;;;;;;;3.13;89.52;102647.48;107927;1281;61367;-77
2022/01/25 10:58:35;;;;;;;40.30;16.50;;;;;;;3.12;89.94;102644.36;107854;1281;76333;-76
2022/01/25 11:01:02;;;;;;;41.10;15.20;;;;;;;3.13;89.64;102643.48;107762;1281;70346;-75
2022/01/25 11:03:38;;;;;;;35.90;16.00;;;;;;;3.14;89.71;102641.61;107894;1281;72972;-76
2022/01/25 11:06:18;;;;;;;38.50;16.20;;;;;;;3.18;89.98;102644.60;107891;1279;61255;-76
2022/01/25 11:08:48;;;;;;;41.10;16.40;;;;;;;3.20;90.08;102645.34;107883;1279;61849;-76
2022/01/25 11:11:32;;;;;;;35.10;15.00;;;;;;;3.20;90.41;102642.68;107851;1281;76224;-76
2022/01/25 11:14:50;;;;;;;38.00;15.50;;;;;;;3.21;89.90;102642.16;107709;1281;72512;-77
2022/01/25 11:16:47;;;;;;;35.60;14.50;;;;;;;3.19;89.91;102643.27;107882;1280;75690;-76
2022/01/25 11:19:15;;;;;;;37.10;15.00;;;;;;;3.22;90.27;102645.95;107764;1281;62806;-77
2022/01/25 11:21:45;;;;;;;38.20;15.90;;;;;;;3.23;90.17;102643.11;107889;1280;61959;-77
2022/01/25 11:24:13;;;;;;;38.00;14.90;;;;;;;3.27;90.52;102634.33;107766;1281;76191;-76
2022/01/25 11:26:45;;;;;;;51.50;15.60;;;;;;;3.31;90.34;102634.65;107876;1280;70306;-76
2022/01/25 11:29:13;;;;;;;41.60;15.50;;;;;;;3.35;90.27;102634.99;107881;1280;73815;-76
2022/01/25 11:31:44;;;;;;;38.80;17.40;;;;;;;3.37;90.81;102633.98;107894;1280;60829;-76
2022/01/25 11:34:14;;;;;;;41.10;17.00;;;;;;;3.40;90.63;102628.76;107919;1280;61617;-76
2022/01/25 11:36:56;;;;;;;31.20;15.10;;;;;;;3.45;91.02;102628.65;107914;1281;74698;-76
2022/01/25 11:39:27;;;;;;;26.80;11.90;;;;;;;3.55;90.96;102622.56;107896;1281;71510;-76
2022/01/25 11:42:04;;;;;;;42.20;15.00;;;;;;;3.63;90.38;102618.39;107852;1279;74029;-76
2022/01/25 11:44:31;;;;;;;41.70;16.30;;;;;;;3.77;90.16;102615.44;107895;1281;61544;-77
2022/01/25 11:47:13;;;;;;;37.90;14.00;;;;;;;3.86;89.56;102607.89;107767;1281;60588;-77
2022/01/25 11:49:52;;;;;;;40.10;16.40;;;;;;;4.00;89.22;102602.23;107738;1280;77576;-76
2022/01/25 11:52:20;;;;;;;39.70;15.10;;;;;;;4.10;88.25;102602.39;107865;1281;71802;-77
2022/01/25 11:54:50;;;;;;;41.70;15.80;;;;;;;4.23;88.05;102597.80;107856;1281;72722;-77
2022/01/25 11:57:22;;;;;;;36.40;15.20;;;;;;;4.37;87.42;102598.43;107931;1279;60905;-77
2022/01/25 11:59:57;;;;;;;22.50;9.80;;;;;;;4.52;86.96;102591.06;107893;1281;60591;-77
2022/01/25 12:02:45;;;;;;;38.60;16.30;;;;;;;4.67;86.58;102591.10;107936;1280;74812;-78
2022/01/25 12:05:15;;;;;;;40.20;15.50;;;;;;;4.82;86.14;102591.23;107970;1280;71485;-77
2022/01/25 12:08:10;;;;;;;35.50;15.20;;;;;;;4.97;85.71;102591.64;107747;1280;72681;-77
2022/01/25 12:10:43;;;;;;;33.20;14.30;;;;;;;5.12;85.08;102584.91;107644;1281;60862;-76
2022/01/25 12:13:29;;;;;;;25.40;11.60;;;;;;;5.27;84.19;102579.98;107794;1281;60580;-77
2022/01/25 12:16:27;;;;;;;29.40;13.10;;;;;;;5.35;83.57;102581.12;107915;1281;76517;-77
2022/01/25 12:19:02;;;;;;;32.50;14.20;;;;;;;5.35;83.37;102580.23;107950;1280;72618;-77
2022/01/25 12:21:47;;;;;;;35.50;15.70;;;;;;;5.38;83.29;102577.19;107943;1281;73211;-76
2022/01/25 12:24:19;;;;;;;35.00;15.30;;;;;;;5.34;82.32;102574.29;107985;1280;61893;-77
2022/01/25 12:27:05;;;;;;;27.40;11.90;;;;;;;5.32;82.84;102570.17;107974;1279;61621;-77
2022/01/25 12:29:37;;;;;;;35.90;13.90;;;;;;;5.24;82.44;102562.06;107832;1281;75053;-78
2022/01/25 12:32:23;;;;;;;33.10;14.30;;;;;;;5.24;82.82;102557.16;107970;1276;71580;-76
2022/01/25 12:35:15;;;;;;;32.70;14.80;;;;;;;5.21;82.64;102552.63;107928;1279;74278;-78
2022/01/25 12:37:54;;;;;;;32.90;13.80;;;;;;;5.18;83.04;102546.85;107819;1281;61472;-76
2022/01/25 12:40:31;;;;;;;37.30;14.60;;;;;;;5.21;83.14;102542.81;107975;1278;60739;-77
2022/01/25 12:43:04;;;;;;;36.20;14.40;;;;;;;5.22;83.06;102541.98;107953;1280;76046;-77
2022/01/25 12:45:37;;;;;;;31.50;13.90;;;;;;;5.21;82.76;102538.91;107917;1280;71477;-77
2022/01/25 12:48:10;;;;;;;30.30;14.40;;;;;;;5.22;82.88;102536.59;107966;1279;73308;-77
2022/01/25 12:50:39;;;;;;;31.30;13.70;;;;;;;5.23;82.95;102535.32;107863;1280;60583;-77
2022/01/25 12:53:08;;;;;;;36.90;13.80;;;;;;;5.26;82.96;102532.46;107921;1281;60346;-77
2022/01/25 12:55:39;;;;;;;27.00;12.60;;;;;;;5.32;83.10;102531.95;107936;1279;74410;-77
2022/01/25 12:58:06;;;;;;;26.60;11.00;;;;;;;5.41;83.12;102520.34;107961;1279;72250;-77
2022/01/25 13:00:40;;;;;;;27.60;11.70;;;;;;;5.46;82.52;102519.34;107932;1280;72683;-77
2022/01/25 13:03:22;;;;;;;26.90;10.60;;;;;;;5.50;82.32;102518.73;107934;1281;61523;-78
2022/01/25 13:05:58;;;;;;;25.10;11.80;;;;;;;5.52;81.73;102512.63;107936;1280;61235;-77
2022/01/25 13:08:33;;;;;;;32.60;12.40;;;;;;;5.54;81.84;102508.45;107953;1279;74311;-77
2022/01/25 13:11:21;;;;;;;24.80;11.40;;;;;;;5.53;81.25;102508.00;107937;1280;70901;-77
2022/01/25 13:14:00;;;;;;;28.60;13.50;;;;;;;5.56;81.44;102510.42;107923;1281;72079;-77
2022/01/25 13:16:45;;;;;;;27.40;12.30;;;;;;;5.59;80.80;102508.51;107891;1279;60496;-77
2022/01/25 13:19:17;;;;;;;28.10;12.60;;;;;;;5.63;80.87;102501.21;107946;1279;61382;-77
2022/01/25 13:21:52;;;;;;;26.60;12.90;;;;;;;5.73;80.49;102500.55;107832;1279;72460;-77
2022/01/25 13:24:36;;;;;;;25.80;10.70;;;;;;;5.79;79.75;102499.89;107941;1281;72530;-77
2022/01/25 13:27:09;;;;;;;28.20;11.50;;;;;;;5.74;79.09;102500.14;107810;1281;74492;-77